createdAt,value
2018-09-07T00:00:40.920Z,23.07
2018-09-07T00:03:08.062Z,20.97
2018-09-07T00:05:35.224Z,22.97
2018-09-07T00:08:02.344Z,23.73
2018-09-07T00:10:33.331Z,24.13
2018-09-07T00:13:00.511Z,24.33
2018-09-07T00:15:27.659Z,26.47
2018-09-07T00:17:54.775Z,25.53
2018-09-07T00:20:21.922Z,21.77
2018-09-07T00:22:49.101Z,30.30
2018-09-07T00:25:16.271Z,26.27
2018-09-07T00:27:43.372Z,24.43
2018-09-07T00:30:10.541Z,25.27
2018-09-07T00:32:37.677Z,24.90
2018-09-07T00:35:05.419Z,28.20
2018-09-07T00:37:32.628Z,26.30
2018-09-07T00:40:00.652Z,26.70
2018-09-07T00:42:28.206Z,27.40
2018-09-07T00:44:55.930Z,28.27
2018-09-07T00:47:23.196Z,26.20
2018-09-07T00:49:50.432Z,30.83
2018-09-07T00:52:17.606Z,25.80
2018-09-07T00:54:44.735Z,28.90
2018-09-07T00:57:11.869Z,31.20
2018-09-07T00:59:39.602Z,34.63
2018-09-07T01:02:06.995Z,43.47
2018-09-07T01:04:34.143Z,37.17
2018-09-07T01:07:01.291Z,34.80
2018-09-07T01:09:28.445Z,33.80
2018-09-07T01:11:55.618Z,32.50
2018-09-07T01:14:22.739Z,32.30
2018-09-07T01:16:49.888Z,31.10
2018-09-07T01:19:17.055Z,27.20
2018-09-07T01:21:44.907Z,27.90
2018-09-07T01:24:12.050Z,26.00
2018-09-07T01:26:39.213Z,25.40
2018-09-07T01:29:06.385Z,26.13
2018-09-07T01:31:33.521Z,29.40
2018-09-07T01:34:00.661Z,25.37
2018-09-07T01:36:27.787Z,27.60
2018-09-07T01:38:54.944Z,27.50
2018-09-07T01:41:22.155Z,26.40
2018-09-07T01:43:49.747Z,28.57
2018-09-07T01:46:17.183Z,26.60
2018-09-07T01:48:44.411Z,34.47
2018-09-07T01:51:11.545Z,27.33
2018-09-07T01:53:38.730Z,25.17
2018-09-07T01:56:05.857Z,28.03
2018-09-07T01:58:33.678Z,29.80
2018-09-07T02:01:00.809Z,28.43
2018-09-07T02:03:29.530Z,30.17
2018-09-07T02:05:56.958Z,27.80
2018-09-07T02:08:25.482Z,32.40
2018-09-07T02:10:54.410Z,31.07
2018-09-07T02:13:22.102Z,31.37
2018-09-07T02:15:49.258Z,31.17
2018-09-07T02:18:16.886Z,30.73
2018-09-07T02:20:44.118Z,30.27
2018-09-07T02:23:11.292Z,27.80
2018-09-07T02:25:38.529Z,29.53
2018-09-07T02:28:05.890Z,32.80
2018-09-07T02:30:33.049Z,34.30
2018-09-07T02:33:00.151Z,30.50
2018-09-07T02:35:27.429Z,31.80
2018-09-07T02:37:54.582Z,29.40
2018-09-07T02:40:21.913Z,34.20
2018-09-07T02:42:49.031Z,29.97
2018-09-07T02:45:16.342Z,27.27
2018-09-07T02:47:43.483Z,28.20
2018-09-07T02:50:10.657Z,26.63
2018-09-07T02:52:37.769Z,27.50
2018-09-07T02:55:05.132Z,23.77
2018-09-07T02:57:32.250Z,25.30
2018-09-07T02:59:59.366Z,26.83
2018-09-07T03:02:26.495Z,26.50
2018-09-07T03:04:53.687Z,22.97
2018-09-07T03:07:20.825Z,29.20
2018-09-07T03:09:47.934Z,23.33
2018-09-07T03:12:15.124Z,24.93
2018-09-07T03:14:42.237Z,24.03
2018-09-07T03:17:09.393Z,25.20
2018-09-07T03:19:36.497Z,26.40
2018-09-07T03:22:04.342Z,25.67
2018-09-07T03:24:31.458Z,22.57
2018-09-07T03:26:58.617Z,26.90
2018-09-07T03:29:25.765Z,27.33
2018-09-07T03:31:52.958Z,25.03
2018-09-07T03:34:20.062Z,28.70
2018-09-07T03:36:47.214Z,22.50
2018-09-07T03:39:14.360Z,23.60
2018-09-07T03:41:41.561Z,26.83
2018-09-07T03:44:08.718Z,26.27
2018-09-07T03:46:36.015Z,23.50
2018-09-07T03:49:03.141Z,26.00
2018-09-07T03:51:30.275Z,25.73
2018-09-07T03:53:57.416Z,28.00
2018-09-07T03:56:24.555Z,27.93
2018-09-07T03:58:51.748Z,28.50
2018-09-07T04:01:18.858Z,27.27
2018-09-07T04:03:45.966Z,26.63
2018-09-07T04:06:13.238Z,26.73
2018-09-07T04:08:40.466Z,26.97
2018-09-07T04:11:07.617Z,29.00
2018-09-07T04:13:34.814Z,25.27
2018-09-07T04:16:02.618Z,25.57
2018-09-07T04:18:29.861Z,25.30
2018-09-07T04:20:57.063Z,25.57
2018-09-07T04:23:31.329Z,27.47
2018-09-07T04:25:58.713Z,24.80
2018-09-07T04:28:25.937Z,27.27
2018-09-07T04:30:53.036Z,25.90
2018-09-07T04:33:20.190Z,21.97
2018-09-07T04:35:47.360Z,22.13
2018-09-07T04:38:14.543Z,24.50
2018-09-07T04:40:41.781Z,24.60
2018-09-07T04:43:08.909Z,25.33
2018-09-07T04:45:36.064Z,23.20
2018-09-07T04:48:03.338Z,24.00
2018-09-07T04:50:30.538Z,22.67
2018-09-07T04:52:57.682Z,26.70
2018-09-07T04:55:24.838Z,24.40
2018-09-07T04:57:52.858Z,25.47
2018-09-07T05:00:20.051Z,22.17
2018-09-07T05:02:47.210Z,21.17
2018-09-07T05:05:14.558Z,21.97
2018-09-07T05:07:41.769Z,23.60
2018-09-07T05:10:08.910Z,23.30
2018-09-07T05:12:36.083Z,19.57
2018-09-07T05:15:03.416Z,23.47
2018-09-07T05:17:30.561Z,22.80
2018-09-07T05:19:58.749Z,22.17
2018-09-07T05:22:26.592Z,21.67
2018-09-07T05:24:53.725Z,22.63
2018-09-07T05:27:20.853Z,19.63
2018-09-07T05:29:47.950Z,25.93
2018-09-07T05:32:15.178Z,22.17
2018-09-07T05:34:42.426Z,21.90
2018-09-07T05:37:09.706Z,18.93
2018-09-07T05:39:36.854Z,17.80
2018-09-07T05:42:04.080Z,16.87
2018-09-07T05:44:31.227Z,19.40
2018-09-07T05:46:58.393Z,17.53
2018-09-07T05:49:25.523Z,19.30
2018-09-07T05:51:52.681Z,15.40
2018-09-07T05:54:19.897Z,20.20
2018-09-07T05:56:47.039Z,21.60
2018-09-07T05:59:14.225Z,18.30
2018-09-07T06:01:41.348Z,18.00
2018-09-07T06:04:08.493Z,16.00
2018-09-07T06:06:35.794Z,15.93
2018-09-07T06:09:03.991Z,16.63
2018-09-07T06:11:31.258Z,15.17
2018-09-07T06:13:58.454Z,17.77
2018-09-07T06:16:26.963Z,16.23
2018-09-07T06:18:54.138Z,15.93
2018-09-07T06:21:21.792Z,17.40
2018-09-07T06:23:49.882Z,15.73
2018-09-07T06:26:17.143Z,16.33
2018-09-07T06:28:44.459Z,14.87
2018-09-07T06:31:11.706Z,18.87
2018-09-07T06:33:38.932Z,17.97
2018-09-07T06:36:06.133Z,17.17
2018-09-07T06:38:33.346Z,18.90
2018-09-07T06:41:01.747Z,20.57
2018-09-07T06:43:28.968Z,18.70
2018-09-07T06:45:56.450Z,19.03
2018-09-07T06:48:23.850Z,16.90
2018-09-07T06:50:50.991Z,18.00
2018-09-07T06:53:18.125Z,21.07
2018-09-07T06:55:45.310Z,19.80
2018-09-07T06:58:12.508Z,21.30
2018-09-07T07:00:39.717Z,24.40
2018-09-07T07:03:07.211Z,21.57
2018-09-07T07:05:34.384Z,23.30
2018-09-07T07:08:01.600Z,22.60
2018-09-07T07:10:28.947Z,25.30
2018-09-07T07:12:56.190Z,31.43
2018-09-07T07:15:25.215Z,30.20
2018-09-07T07:17:52.512Z,33.37
2018-09-07T07:20:21.205Z,33.20
2018-09-07T07:22:48.413Z,33.90
2018-09-07T07:25:15.614Z,37.93
2018-09-07T07:27:42.854Z,36.20
2018-09-07T07:30:10.452Z,36.77
2018-09-07T07:32:37.741Z,35.40
2018-09-07T07:35:05.120Z,43.27
2018-09-07T07:37:32.335Z,51.73
2018-09-07T07:39:59.585Z,47.70
2018-09-07T07:42:26.828Z,49.20
2018-09-07T07:44:54.240Z,51.40
2018-09-07T07:47:21.461Z,46.37
2018-09-07T07:49:48.743Z,46.43
2018-09-07T07:52:16.093Z,50.07
2018-09-07T07:54:43.366Z,47.23
2018-09-07T07:57:10.660Z,44.47
2018-09-07T07:59:39.356Z,53.47
2018-09-07T08:02:06.535Z,49.10
2018-09-07T08:04:33.754Z,49.20
2018-09-07T08:07:00.999Z,40.83
2018-09-07T08:09:28.397Z,40.80
2018-09-07T08:11:56.358Z,32.43
2018-09-07T08:14:23.534Z,33.40
2018-09-07T08:16:50.865Z,34.70
2018-09-07T08:19:18.076Z,27.83
2018-09-07T08:21:45.949Z,27.80
2018-09-07T08:24:13.206Z,26.20
2018-09-07T08:26:40.371Z,26.00
2018-09-07T08:29:07.683Z,22.50
2018-09-07T08:31:34.844Z,23.33
2018-09-07T08:34:02.047Z,19.67
2018-09-07T08:36:29.202Z,19.43
2018-09-07T08:38:56.534Z,23.37
2018-09-07T08:41:23.825Z,26.13
2018-09-07T08:43:50.975Z,19.70
2018-09-07T08:46:18.163Z,20.13
2018-09-07T08:48:45.496Z,14.73
2018-09-07T08:51:12.546Z,16.67
2018-09-07T08:53:39.758Z,11.83
2018-09-07T08:56:06.959Z,11.53
2018-09-07T08:58:34.142Z,10.67
2018-09-07T09:01:01.328Z,13.83
2018-09-07T09:03:28.577Z,12.97
2018-09-07T09:05:55.761Z,9.10
2018-09-07T09:08:22.955Z,8.53
2018-09-07T09:10:50.150Z,12.10
2018-09-07T09:13:17.382Z,13.80
2018-09-07T09:15:44.529Z,9.33
2018-09-07T09:18:11.688Z,9.83
2018-09-07T09:20:39.172Z,8.97
2018-09-07T09:23:06.730Z,7.00
2018-09-07T09:25:34.324Z,8.17
2018-09-07T09:28:01.733Z,6.87
2018-09-07T09:30:28.932Z,7.67
2018-09-07T09:32:56.732Z,9.17
2018-09-07T09:35:23.926Z,7.77
2018-09-07T09:37:51.130Z,8.03
2018-09-07T09:40:18.302Z,6.93
2018-09-07T09:42:45.417Z,8.80
2018-09-07T09:45:12.620Z,7.70
2018-09-07T09:47:39.769Z,8.97
2018-09-07T09:50:07.031Z,6.10
2018-09-07T09:52:34.149Z,6.17
2018-09-07T09:55:05.181Z,9.23
2018-09-07T09:57:32.454Z,5.20
2018-09-07T09:59:59.765Z,5.50
2018-09-07T10:02:33.217Z,6.00
2018-09-07T10:05:00.503Z,5.40
2018-09-07T10:07:27.697Z,5.07
2018-09-07T10:09:54.966Z,5.87
2018-09-07T10:12:22.136Z,5.70
2018-09-07T10:14:49.618Z,6.40
2018-09-07T10:17:17.599Z,4.67
2018-09-07T10:19:45.174Z,6.20
2018-09-07T10:22:12.908Z,5.20
2018-09-07T10:24:40.127Z,7.67
2018-09-07T10:27:07.838Z,6.40
2018-09-07T10:29:34.991Z,5.23
2018-09-07T10:32:02.355Z,5.07
2018-09-07T10:34:29.599Z,5.03
2018-09-07T10:36:56.793Z,5.53
2018-09-07T10:39:24.138Z,5.43
2018-09-07T10:41:51.350Z,8.70
2018-09-07T10:44:18.672Z,6.37
2018-09-07T10:46:45.843Z,5.17
2018-09-07T10:49:13.053Z,6.67
2018-09-07T10:51:40.266Z,6.03
2018-09-07T10:54:07.440Z,4.77
2018-09-07T10:59:08.700Z,5.10
2018-09-07T11:01:35.814Z,5.80
2018-09-07T11:04:03.082Z,8.20
2018-09-07T11:06:30.232Z,5.53
2018-09-07T11:08:57.555Z,6.17
2018-09-07T11:11:24.801Z,4.37
2018-09-07T11:13:52.817Z,6.17
2018-09-07T11:16:19.973Z,6.27
2018-09-07T11:18:47.731Z,4.87
2018-09-07T11:21:15.473Z,4.70
2018-09-07T11:23:42.723Z,4.33
2018-09-07T11:26:10.514Z,4.63
2018-09-07T11:28:38.438Z,4.57
2018-09-07T11:31:05.644Z,6.10
2018-09-07T11:33:32.893Z,5.27
2018-09-07T11:36:00.167Z,4.40
2018-09-07T11:38:27.544Z,4.00
2018-09-07T11:40:55.001Z,4.87
2018-09-07T11:43:24.708Z,2.67
2018-09-07T11:45:51.887Z,3.73
2018-09-07T11:48:19.936Z,3.97
2018-09-07T11:50:47.819Z,4.23
2018-09-07T11:53:15.168Z,3.57
2018-09-07T11:55:42.414Z,4.57
2018-09-07T11:58:09.687Z,3.17
2018-09-07T12:00:36.764Z,3.53
2018-09-07T12:03:04.050Z,3.13
2018-09-07T12:05:31.207Z,5.40
2018-09-07T12:07:58.430Z,3.10
2018-09-07T12:10:25.549Z,3.13
2018-09-07T12:12:52.847Z,3.00
2018-09-07T12:15:19.857Z,5.77
2018-09-07T12:17:47.150Z,5.73
2018-09-07T12:20:14.287Z,2.30
2018-09-07T12:22:41.814Z,2.00
2018-09-07T12:25:09.004Z,3.30
2018-09-07T12:27:36.115Z,4.00
2018-09-07T12:30:03.260Z,2.43
2018-09-07T12:32:30.476Z,2.10
2018-09-07T12:34:57.612Z,2.27
2018-09-07T12:37:24.849Z,2.40
2018-09-07T12:39:52.474Z,2.20
2018-09-07T12:42:20.482Z,6.30
2018-09-07T12:44:47.646Z,4.07
2018-09-07T12:47:16.178Z,2.27
2018-09-07T12:49:44.150Z,3.33
2018-09-07T12:52:11.366Z,1.93
2018-09-07T12:54:38.506Z,1.80
2018-09-07T12:57:05.653Z,2.13
2018-09-07T12:59:32.848Z,2.00
2018-09-07T13:01:59.967Z,2.10
2018-09-07T13:04:27.568Z,3.00
2018-09-07T13:06:54.769Z,2.43
2018-09-07T13:09:21.937Z,2.80
2018-09-07T13:11:49.052Z,5.50
2018-09-07T13:14:16.207Z,2.67
2018-09-07T13:16:43.688Z,5.10
2018-09-07T13:19:10.942Z,3.00
2018-09-07T13:21:38.334Z,2.97
2018-09-07T13:24:06.808Z,3.50
2018-09-07T13:26:34.652Z,2.23
2018-09-07T13:29:01.941Z,3.20
2018-09-07T13:31:29.058Z,2.50
2018-09-07T13:33:58.372Z,3.97
2018-09-07T13:36:25.621Z,2.87
2018-09-07T13:38:52.770Z,3.77
2018-09-07T13:41:21.583Z,4.00
2018-09-07T13:43:48.742Z,3.70
2018-09-07T13:46:15.904Z,3.00
2018-09-07T13:48:43.055Z,3.43
2018-09-07T13:51:10.191Z,4.90
2018-09-07T13:53:37.454Z,3.10
2018-09-07T13:56:04.606Z,3.33
2018-09-07T13:58:31.782Z,2.10
2018-09-07T14:00:58.933Z,6.43
2018-09-07T14:03:26.123Z,3.40
2018-09-07T14:05:53.327Z,4.50
2018-09-07T14:08:20.555Z,4.47
2018-09-07T14:10:47.782Z,4.10
2018-09-07T14:13:15.051Z,2.50
2018-09-07T14:15:42.347Z,4.00
2018-09-07T14:18:09.460Z,5.70
2018-09-07T14:20:36.769Z,4.80
2018-09-07T14:23:04.099Z,3.00
2018-09-07T14:25:31.245Z,3.63
2018-09-07T14:27:58.433Z,3.50
2018-09-07T14:30:25.692Z,4.70
2018-09-07T14:32:52.849Z,3.33
2018-09-07T14:35:19.978Z,3.60
2018-09-07T14:37:47.174Z,4.00
2018-09-07T14:40:14.326Z,3.10
2018-09-07T14:42:41.674Z,6.03
2018-09-07T14:45:08.913Z,3.20
2018-09-07T14:47:36.158Z,4.20
2018-09-07T14:50:04.177Z,11.70
2018-09-07T14:52:31.371Z,3.50
2018-09-07T14:54:58.564Z,4.13
2018-09-07T14:57:25.755Z,3.80
2018-09-07T14:59:55.054Z,5.40
2018-09-07T15:02:22.163Z,5.03
2018-09-07T15:04:49.321Z,5.83
2018-09-07T15:07:16.470Z,3.50
2018-09-07T15:09:43.652Z,8.97
2018-09-07T15:12:10.865Z,3.10
2018-09-07T15:14:37.994Z,5.40
2018-09-07T15:17:05.111Z,4.60
2018-09-07T15:19:32.448Z,8.53
2018-09-07T15:22:00.070Z,4.00
2018-09-07T15:24:27.233Z,5.00
2018-09-07T15:26:54.357Z,5.80
2018-09-07T15:29:21.503Z,3.27
2018-09-07T15:31:48.649Z,3.13
2018-09-07T15:34:15.820Z,3.00
2018-09-07T15:36:43.024Z,4.43
2018-09-07T15:39:10.663Z,3.60
2018-09-07T15:41:37.998Z,5.27
2018-09-07T15:44:05.423Z,6.77
2018-09-07T15:46:32.607Z,4.20
2018-09-07T15:48:59.734Z,5.37
2018-09-07T15:51:26.899Z,4.83
2018-09-07T15:53:54.030Z,4.23
2018-09-07T15:56:21.158Z,5.50
2018-09-07T15:58:48.417Z,3.67
2018-09-07T16:01:15.535Z,4.70
2018-09-07T16:03:42.786Z,3.53
2018-09-07T16:06:11.554Z,3.20
2018-09-07T16:08:39.794Z,4.13
2018-09-07T16:11:07.197Z,3.47
2018-09-07T16:13:34.449Z,6.20
2018-09-07T16:16:01.631Z,3.50
2018-09-07T16:18:28.799Z,3.30
2018-09-07T16:21:00.564Z,4.10
2018-09-07T16:23:27.860Z,7.50
2018-09-07T16:25:57.503Z,3.40
2018-09-07T16:28:26.407Z,4.23
2018-09-07T16:30:53.662Z,3.50
2018-09-07T16:33:20.885Z,3.43
2018-09-07T16:35:48.139Z,3.70
2018-09-07T16:38:15.386Z,5.70
2018-09-07T16:40:42.527Z,3.67
2018-09-07T16:43:09.717Z,5.37
2018-09-07T16:45:36.895Z,7.00
2018-09-07T16:48:04.114Z,79.33
2018-09-07T16:50:31.271Z,113.53
2018-09-07T16:52:58.450Z,54.03
2018-09-07T16:55:25.602Z,43.40
2018-09-07T16:57:52.819Z,90.40
2018-09-07T17:00:20.046Z,6.87
2018-09-07T17:02:47.253Z,49.40
2018-09-07T17:05:14.432Z,113.43
2018-09-07T17:07:41.680Z,90.53
2018-09-07T17:10:08.830Z,5.33
2018-09-07T17:12:36.122Z,62.73
2018-09-07T17:15:03.306Z,9.43
2018-09-07T17:17:30.506Z,8.03
2018-09-07T17:19:57.747Z,3.90
2018-09-07T17:22:24.885Z,7.63
2018-09-07T17:24:52.973Z,9.17
2018-09-07T17:27:20.215Z,8.03
2018-09-07T17:29:47.391Z,7.40
2018-09-07T17:32:14.572Z,7.23
2018-09-07T17:34:41.729Z,5.50
2018-09-07T17:37:08.929Z,5.47
2018-09-07T17:39:36.212Z,6.00
2018-09-07T17:42:03.595Z,5.07
2018-09-07T17:44:30.847Z,4.60
2018-09-07T17:46:58.058Z,5.17
2018-09-07T17:49:25.225Z,4.40
2018-09-07T17:51:52.376Z,3.27
2018-09-07T17:54:19.596Z,3.57
2018-09-07T17:56:46.847Z,4.00
2018-09-07T17:59:14.085Z,2.77
2018-09-07T18:01:41.364Z,2.33
2018-09-07T18:04:08.654Z,2.80
2018-09-07T18:06:35.963Z,2.20
2018-09-07T18:09:05.053Z,2.60
2018-09-07T18:11:33.025Z,2.87
2018-09-07T18:14:00.372Z,2.00
2018-09-07T18:16:27.793Z,2.23
2018-09-07T18:18:54.991Z,3.90
2018-09-07T18:21:22.251Z,3.43
2018-09-07T18:23:49.510Z,5.27
2018-09-07T18:26:16.853Z,6.33
2018-09-07T18:28:45.203Z,3.33
2018-09-07T18:31:12.586Z,4.20
2018-09-07T18:33:39.814Z,2.70
2018-09-07T18:36:07.571Z,4.47
2018-09-07T18:38:34.407Z,3.20
2018-09-07T18:41:02.413Z,5.60
2018-09-07T18:43:30.046Z,2.70
2018-09-07T18:45:57.270Z,5.63
2018-09-07T18:48:24.483Z,3.60
2018-09-07T18:50:51.815Z,7.43
2018-09-07T18:53:19.101Z,6.20
2018-09-07T18:55:46.688Z,3.40
2018-09-07T18:58:13.944Z,3.73
2018-09-07T19:00:42.054Z,3.50
2018-09-07T19:03:09.476Z,5.70
2018-09-07T19:05:36.637Z,4.00
2018-09-07T19:13:03.542Z,4.00
2018-09-07T19:15:30.676Z,3.57
2018-09-07T19:17:57.967Z,4.87
2018-09-07T19:20:25.118Z,3.80
2018-09-07T19:22:52.590Z,3.77
2018-09-07T19:25:19.710Z,7.03
2018-09-07T19:27:48.137Z,5.47
2018-09-07T19:30:15.323Z,6.90
2018-09-07T19:32:42.551Z,3.53
2018-09-07T19:35:09.771Z,3.20
2018-09-07T19:37:37.015Z,3.40
2018-09-07T19:40:04.857Z,3.50
2018-09-07T19:42:32.055Z,3.70
2018-09-07T19:44:59.353Z,7.50
2018-09-07T19:47:26.506Z,4.40
2018-09-07T19:49:53.669Z,4.30
2018-09-07T19:52:20.805Z,5.27
2018-09-07T19:54:48.361Z,4.83
2018-09-07T19:57:16.409Z,5.13
2018-09-07T19:59:43.697Z,4.27
2018-09-07T20:02:10.919Z,5.10
2018-09-07T20:04:38.531Z,4.10
2018-09-07T20:07:06.612Z,4.13
2018-09-07T20:09:33.914Z,4.90
2018-09-07T20:12:01.202Z,9.70
2018-09-07T20:14:28.359Z,4.80
2018-09-07T20:16:55.551Z,4.03
2018-09-07T20:19:22.738Z,5.00
2018-09-07T20:21:50.353Z,5.83
2018-09-07T20:24:17.771Z,4.30
2018-09-07T20:26:44.972Z,4.63
2018-09-07T20:29:12.216Z,4.70
2018-09-07T20:31:40.184Z,5.77
2018-09-07T20:34:08.027Z,5.93
2018-09-07T20:36:36.369Z,5.57
2018-09-07T20:39:05.115Z,4.10
2018-09-07T20:41:32.245Z,4.90
2018-09-07T20:43:59.487Z,4.03
2018-09-07T20:46:26.646Z,5.13
2018-09-07T20:48:53.777Z,5.43
2018-09-07T20:51:21.098Z,4.03
2018-09-07T20:53:48.371Z,4.60
2018-09-07T20:56:15.997Z,7.80
2018-09-07T20:58:43.417Z,4.27
2018-09-07T21:01:11.576Z,4.40
2018-09-07T21:03:38.997Z,6.43
2018-09-07T21:06:09.979Z,4.30
2018-09-07T21:08:39.679Z,7.60
2018-09-07T21:11:07.739Z,4.80
2018-09-07T21:13:34.990Z,4.90
2018-09-07T21:16:02.503Z,5.23
2018-09-07T21:18:29.908Z,4.80
2018-09-07T21:20:57.069Z,5.17
2018-09-07T21:23:24.283Z,5.70
2018-09-07T21:25:51.541Z,5.37
2018-09-07T21:28:18.686Z,5.23
2018-09-07T21:30:45.882Z,6.63
2018-09-07T21:33:13.038Z,7.00
2018-09-07T21:35:40.151Z,5.17
2018-09-07T21:38:07.297Z,6.93
2018-09-07T21:40:34.417Z,5.30
2018-09-07T21:43:01.560Z,5.33
2018-09-07T21:45:28.682Z,6.93
2018-09-07T21:47:55.821Z,5.53
2018-09-07T21:50:22.977Z,7.77
2018-09-07T21:52:50.151Z,5.47
2018-09-07T21:55:17.305Z,5.23
2018-09-07T21:57:44.583Z,7.03
2018-09-07T22:00:11.990Z,6.80
2018-09-07T22:02:39.143Z,4.93
2018-09-07T22:05:06.329Z,5.13
2018-09-07T22:07:39.343Z,5.07
2018-09-07T22:10:06.495Z,5.80
2018-09-07T22:12:33.644Z,5.90
2018-09-07T22:15:00.774Z,5.47
2018-09-07T22:17:27.874Z,7.47
2018-09-07T22:19:55.102Z,10.30
2018-09-07T22:22:22.273Z,9.00
2018-09-07T22:24:49.472Z,6.47
2018-09-07T22:27:16.594Z,7.50
2018-09-07T22:29:45.715Z,8.43
2018-09-07T22:32:14.718Z,8.87
2018-09-07T22:34:41.921Z,8.87
2018-09-07T22:37:09.144Z,7.10
2018-09-07T22:39:36.413Z,9.70
2018-09-07T22:42:03.718Z,5.87
2018-09-07T22:44:30.835Z,5.17
2018-09-07T22:46:58.186Z,8.40
2018-09-07T22:49:25.344Z,8.90
2018-09-07T22:51:52.566Z,5.30
2018-09-07T22:54:19.674Z,7.63
2018-09-07T22:56:46.818Z,6.07
2018-09-07T22:59:14.062Z,6.10
2018-09-07T23:01:41.224Z,8.60
2018-09-07T23:04:08.362Z,6.40
2018-09-07T23:06:41.417Z,6.00
2018-09-07T23:09:08.936Z,7.17
2018-09-07T23:11:36.906Z,5.30
2018-09-07T23:14:04.106Z,5.07
2018-09-07T23:16:31.353Z,5.77
2018-09-07T23:18:58.581Z,6.37
2018-09-07T23:21:25.759Z,7.40
2018-09-07T23:23:53.769Z,6.03
2018-09-07T23:26:20.989Z,7.30
2018-09-07T23:28:48.158Z,6.27
2018-09-07T23:31:15.453Z,5.53
2018-09-07T23:33:42.734Z,6.13
2018-09-07T23:36:09.939Z,7.30
2018-09-07T23:38:37.138Z,5.50
2018-09-07T23:41:04.309Z,5.10
2018-09-07T23:43:31.612Z,5.73
2018-09-07T23:45:58.777Z,6.40
2018-09-07T23:48:25.913Z,5.60
2018-09-07T23:50:53.063Z,4.30
2018-09-07T23:53:20.238Z,8.13
2018-09-07T23:55:47.436Z,4.83
2018-09-07T23:58:14.625Z,5.00
